Aeroporto :
LOGIN :

Iscrizione | Disclaimer

   EN    FR    IT 

 










Sommario :    VFR   VFR Marginale   IFR   IFR Intensivo   IFR Molto Intensivo
Visibilità : 
Base nubi : 
>= 8 km
>= 3000ft
5 / 8 km
1000 / 3000 ft
1500m / 5 km
500 / 1000 ft
800 / 1500m
200 / 500 ft
< 800m
< 200 ft
Simboli :   Temporali  Nebbia  Neve Forte  Precipitazioni Forti  Vento > 20 kt
SIGMETs :   Varie  Temporali  Ghiacco  Turbolenza  Onda orograficha  Ceneri Vulcaniche






- Altitudine del aeroporto : 939 ft


LKKB - Kbely Air Base

ULTIMO METAR :
  • 291700Z 22011KT CAVOK 03/M03 Q1007 NOSIG

METARs OBSOLETI :
  • 291600Z 23015KT 9999 BKN047 04/M03 Q1006 NOSIG
  • 291500Z 24016KT 9999 FEW030 BKN050 04/M02 Q1006 NOSIG

TAF TAF LKKB
Valido dal 29 a 12 ore il 30 a 12 ore UTC


291100Z 2912/3012 23015KT CAVOK
TEMPO 2912/2921 26016G28KT BKN025
PROB40
TEMPO 2918/3002 6000 SHRA BKN020
TEMPO 3007/3011 6000 SHRA BKN015



MetMap, La meteo Aeronautica in un colpo d'occhio ! - Copyright ORBIFLY Dicembre 2007 - Disclaimer

ORBIFLY MET'MAP TEAM :

Programmazione e sviluppo : Alexandra Zaïnal
Concezione : Baudouin d'Aumeries
Aiuto per la programmazione : Marc-Olivier Méhu
Supporto tecnico e logistico : Manuel Goepfert
Aiuto per la traduzione : Arnaldo La Scala

Contatto : metmap@orbifly.com




FONTI E CREDITI :

   NOAA